Time;durP1;ratioP1;P1;durP2;ratioP2;P2;SDS_P1;SDS_P2;PMS_P1;PMS_P2;Temp;Humidity;BMP_temperature;BMP_pressure;BME280_temperature;BME280_humidity;BME280_pressure;Samples;Min_cycle;Max_cycle;Signal;HPM_P1;HPM_P2
2022/12/04 00:01:22;;;;;;;27.85;12.57;;;;;;;;;;4989734;28;20077;-64
2022/12/04 00:03:54;;;;;;;27.77;11.48;;;;;;;;;;4989809;28;20038;-65
2022/12/04 00:06:22;;;;;;;30.90;11.65;;;;;;;;;;4989650;28;20050;-64
2022/12/04 00:08:50;;;;;;;30.17;13.00;;;;;;;;;;4989636;28;20100;-64
2022/12/04 00:11:19;;;;;;;27.75;12.43;;;;;;;;;;4989688;28;20046;-64
2022/12/04 00:13:47;;;;;;;29.65;13.38;;;;;;;;;;4989745;28;20496;-64
2022/12/04 00:16:17;;;;;;;29.35;14.10;;;;;;;;;;4989569;28;20066;-64
2022/12/04 00:18:44;;;;;;;35.10;14.30;;;;;;;;;;4989901;28;20042;-64
2022/12/04 00:21:13;;;;;;;30.17;13.40;;;;;;;;;;4989154;28;20496;-64
2022/12/04 00:23:41;;;;;;;30.23;11.98;;;;;;;;;;4992896;28;20047;-63
2022/12/04 00:26:10;;;;;;;35.22;14.60;;;;;;;;;;4993001;28;20042;-64
2022/12/04 00:28:38;;;;;;;34.90;15.05;;;;;;;;;;4992854;28;20038;-63
2022/12/04 00:31:09;;;;;;;33.33;13.93;;;;;;;;;;4993228;28;20038;-64
2022/12/04 00:33:37;;;;;;;35.30;14.98;;;;;;;;;;4992842;28;20099;-64
2022/12/04 00:36:05;;;;;;;32.38;13.70;;;;;;;;;;4993119;28;20046;-64
2022/12/04 00:38:33;;;;;;;33.35;13.57;;;;;;;;;;4993172;28;20050;-64
2022/12/04 00:41:01;;;;;;;31.75;13.38;;;;;;;;;;4992717;28;20129;-64
2022/12/04 00:43:29;;;;;;;32.97;13.40;;;;;;;;;;4992585;28;20034;-63
2022/12/04 00:45:56;;;;;;;30.20;12.60;;;;;;;;;;4991448;28;20042;-64
2022/12/04 00:48:24;;;;;;;31.80;13.88;;;;;;;;;;4992850;28;20040;-64
2022/12/04 00:50:53;;;;;;;30.15;14.18;;;;;;;;;;4992555;28;20095;-64
2022/12/04 00:53:20;;;;;;;33.55;13.82;;;;;;;;;;4992620;28;20082;-64
2022/12/04 00:55:48;;;;;;;33.05;14.15;;;;;;;;;;4992528;28;20043;-64
2022/12/04 00:58:15;;;;;;;30.50;12.55;;;;;;;;;;4992566;28;20057;-64
2022/12/04 01:00:43;;;;;;;34.40;12.90;;;;;;;;;;4992564;28;20111;-64
2022/12/04 01:03:10;;;;;;;32.05;13.55;;;;;;;;;;4991355;28;20100;-64
2022/12/04 01:05:43;;;;;;;28.30;12.68;;;;;;;;;;4992400;28;20115;-64
2022/12/04 01:08:11;;;;;;;31.63;12.05;;;;;;;;;;4991244;28;20432;-64
2022/12/04 01:10:40;;;;;;;29.85;12.70;;;;;;;;;;4992583;28;20373;-64
2022/12/04 01:13:07;;;;;;;35.10;12.30;;;;;;;;;;4992225;28;20046;-64
2022/12/04 01:15:39;;;;;;;28.42;12.50;;;;;;;;;;4992325;28;20050;-64
2022/12/04 01:18:06;;;;;;;29.63;12.55;;;;;;;;;;4990923;28;20050;-64
2022/12/04 01:20:34;;;;;;;33.17;13.23;;;;;;;;;;4992251;28;20043;-64
2022/12/04 01:23:01;;;;;;;28.40;11.70;;;;;;;;;;4992051;28;20045;-64
2022/12/04 01:25:29;;;;;;;29.13;11.93;;;;;;;;;;4992181;28;20058;-64
2022/12/04 01:27:57;;;;;;;28.23;11.85;;;;;;;;;;4992099;28;20042;-64
2022/12/04 01:30:24;;;;;;;32.40;13.10;;;;;;;;;;4991983;28;20034;-64
2022/12/04 01:32:51;;;;;;;35.33;13.40;;;;;;;;;;4992189;28;20100;-64
2022/12/04 01:35:19;;;;;;;31.05;12.55;;;;;;;;;;4992044;28;20038;-64
2022/12/04 01:37:46;;;;;;;27.17;11.93;;;;;;;;;;4991931;28;20042;-64
2022/12/04 01:40:16;;;;;;;30.83;12.40;;;;;;;;;;4991826;28;20054;-64
2022/12/04 01:42:44;;;;;;;29.80;13.43;;;;;;;;;;4991868;28;20046;-64
2022/12/04 01:45:43;;;;;;;29.67;13.32;;;;;;;;;;4991856;28;20407;-64
2022/12/04 01:48:21;;;;;;;26.17;12.02;;;;;;;;;;5002037;28;20046;-64
2022/12/04 01:50:50;;;;;;;29.52;12.40;;;;;;;;;;4991888;28;20403;-64
2022/12/04 01:53:18;;;;;;;29.13;11.48;;;;;;;;;;4991661;28;20038;-64
2022/12/04 01:55:47;;;;;;;30.25;12.52;;;;;;;;;;4991712;28;20087;-64
2022/12/04 01:58:15;;;;;;;28.65;12.18;;;;;;;;;;4991432;28;20484;-63
2022/12/04 02:00:42;;;;;;;27.25;12.05;;;;;;;;;;4991556;28;20042;-64
2022/12/04 02:03:14;;;;;;;21.88;10.50;;;;;;;;;;4991442;28;20042;-63
2022/12/04 02:05:42;;;;;;;25.80;11.45;;;;;;;;;;4991478;28;20041;-64
2022/12/04 02:08:09;;;;;;;24.90;11.52;;;;;;;;;;4991466;28;20113;-63
2022/12/04 02:10:57;;;;;;;27.35;11.88;;;;;;;;;;4991574;28;20074;-63
2022/12/04 02:13:31;;;;;;;29.35;12.43;;;;;;;;;;4996984;28;20065;-63
2022/12/04 02:16:02;;;;;;;29.15;13.05;;;;;;;;;;4991716;28;20049;-63
2022/12/04 02:18:35;;;;;;;26.13;12.40;;;;;;;;;;4991270;28;20054;-63
2022/12/04 02:21:09;;;;;;;25.75;12.32;;;;;;;;;;4991544;28;20525;-64
2022/12/04 02:23:46;;;;;;;29.20;13.27;;;;;;;;;;4991232;28;20051;-63
2022/12/04 02:26:37;;;;;;;34.08;14.40;;;;;;;;;;4991319;28;20457;-63
2022/12/04 02:29:07;;;;;;;25.17;12.52;;;;;;;;;;4995671;28;20054;-64
2022/12/04 02:31:40;;;;;;;29.05;13.23;;;;;;;;;;4991329;28;20129;-64
2022/12/04 02:34:23;;;;;;;27.42;13.18;;;;;;;;;;4991319;28;20042;-63
2022/12/04 02:36:53;;;;;;;31.27;14.00;;;;;;;;;;4991057;28;20129;-63
2022/12/04 02:39:41;;;;;;;31.50;14.80;;;;;;;;;;4989783;28;20407;-63
2022/12/04 02:42:14;;;;;;;27.02;13.32;;;;;;;;;;4990883;28;20384;-63
2022/12/04 02:44:48;;;;;;;27.88;14.18;;;;;;;;;;4990283;28;20042;-63
2022/12/04 02:47:17;;;;;;;30.52;14.63;;;;;;;;;;4991036;28;20049;-63
2022/12/04 02:49:47;;;;;;;34.08;15.27;;;;;;;;;;4991205;28;20042;-63
2022/12/04 02:52:17;;;;;;;33.60;14.93;;;;;;;;;;4990809;28;20054;-63
2022/12/04 02:54:47;;;;;;;31.08;14.43;;;;;;;;;;4991068;28;20066;-63
2022/12/04 02:57:19;;;;;;;35.47;14.48;;;;;;;;;;4990998;28;20087;-63
2022/12/04 02:59:48;;;;;;;32.58;14.93;;;;;;;;;;4990485;28;20091;-64
2022/12/04 03:02:23;;;;;;;31.42;14.93;;;;;;;;;;4990833;28;20526;-64
2022/12/04 03:04:51;;;;;;;30.00;14.02;;;;;;;;;;4990470;28;20042;-66
2022/12/04 03:07:27;;;;;;;31.60;15.57;;;;;;;;;;4990495;28;20046;-63
2022/12/04 03:09:57;;;;;;;31.55;14.80;;;;;;;;;;4990864;28;20568;-63
2022/12/04 03:12:32;;;;;;;29.90;15.38;;;;;;;;;;4990451;28;20052;-63
2022/12/04 03:15:00;;;;;;;;;;;;;;;;;;4990820;28;20134;-64
2022/12/04 03:17:33;;;;;;;30.45;14.00;;;;;;;;;;4990430;28;19921;-64
2022/12/04 03:20:02;;;;;;;29.42;14.52;;;;;;;;;;4990454;28;20039;-64
2022/12/04 03:22:31;;;;;;;31.92;13.23;;;;;;;;;;4990379;28;20046;-64
2022/12/04 03:24:59;;;;;;;30.17;14.10;;;;;;;;;;4990144;28;20046;-64
2022/12/04 03:27:26;;;;;;;31.00;15.02;;;;;;;;;;4990405;28;20039;-64
2022/12/04 03:30:29;;;;;;;28.63;14.05;;;;;;;;;;5025067;28;20040;-64
2022/12/04 03:33:02;;;;;;;25.67;13.00;;;;;;;;;;5010656;28;20053;-64
2022/12/04 03:35:39;;;;;;;26.95;13.27;;;;;;;;;;5080451;28;20178;-64
2022/12/04 03:38:18;;;;;;;32.40;13.98;;;;;;;;;;5092453;28;20126;-64
2022/12/04 03:41:06;;;;;;;30.70;14.02;;;;;;;;;;5092588;28;20040;-64
2022/12/04 03:43:46;;;;;;;26.30;12.73;;;;;;;;;;5091891;28;20119;-65
2022/12/04 03:46:22;;;;;;;28.08;13.82;;;;;;;;;;5091285;28;20048;-65
2022/12/04 03:48:55;;;;;;;29.60;13.27;;;;;;;;;;5092371;28;20233;-64
2022/12/04 03:51:26;;;;;;;32.10;13.30;;;;;;;;;;5092241;28;20032;-65
2022/12/04 03:53:55;;;;;;;25.77;13.20;;;;;;;;;;5092327;28;20048;-64
2022/12/04 03:56:26;;;;;;;25.27;13.00;;;;;;;;;;5093636;28;20063;-65
2022/12/04 03:58:56;;;;;;;25.73;13.20;;;;;;;;;;5094927;28;20040;-65
2022/12/04 04:01:27;;;;;;;24.55;11.98;;;;;;;;;;5096109;28;20402;-64
2022/12/04 04:03:55;;;;;;;23.45;11.23;;;;;;;;;;5096258;28;20044;-64
2022/12/04 04:06:25;;;;;;;26.95;13.60;;;;;;;;;;5096137;28;20074;-64
2022/12/04 04:08:55;;;;;;;24.80;12.68;;;;;;;;;;5096051;28;20039;-64
2022/12/04 04:11:27;;;;;;;24.65;12.55;;;;;;;;;;5096427;28;20106;-64
2022/12/04 04:25:24;;;;;;;23.42;11.38;;;;;;;;;;5095802;28;20066;-65
2022/12/04 04:27:55;;;;;;;26.10;12.18;;;;;;;;;;5096046;28;20040;-64
2022/12/04 04:30:22;;;;;;;24.92;12.90;;;;;;;;;;5095666;28;20497;-65
2022/12/04 04:32:52;;;;;;;24.60;12.13;;;;;;;;;;5096217;28;20075;-64
2022/12/04 04:35:32;;;;;;;23.73;11.50;;;;;;;;;;5095321;28;20044;-64
2022/12/04 04:37:59;;;;;;;26.88;12.32;;;;;;;;;;5095591;28;20046;-64
2022/12/04 04:40:33;;;;;;;25.08;12.00;;;;;;;;;;5095513;28;20035;-64
2022/12/04 04:43:18;;;;;;;21.40;10.82;;;;;;;;;;5095484;28;20036;-64
2022/12/04 04:45:46;;;;;;;24.33;11.70;;;;;;;;;;5094277;28;20116;-64
2022/12/04 04:48:15;;;;;;;23.10;11.32;;;;;;;;;;5095554;28;20424;-64
2022/12/04 04:50:44;;;;;;;24.80;12.23;;;;;;;;;;5095291;28;20066;-64
2022/12/04 04:53:13;;;;;;;25.35;12.25;;;;;;;;;;5095331;28;20090;-63
2022/12/04 04:55:40;;;;;;;22.50;11.48;;;;;;;;;;5095344;28;20500;-64
2022/12/04 04:58:18;;;;;;;31.83;15.05;;;;;;;;;;5095083;28;20101;-63
2022/12/04 05:00:50;;;;;;;23.42;12.20;;;;;;;;;;5094691;28;20051;-63
2022/12/04 05:03:18;;;;;;;28.50;13.27;;;;;;;;;;5095043;28;20058;-64
2022/12/04 05:05:45;;;;;;;23.33;12.48;;;;;;;;;;5094824;28;20447;-64
2022/12/04 05:08:13;;;;;;;26.92;12.73;;;;;;;;;;5093298;28;20077;-63
2022/12/04 05:10:40;;;;;;;23.40;12.38;;;;;;;;;;5094923;28;20035;-63
2022/12/04 05:13:09;;;;;;;21.55;11.80;;;;;;;;;;5094735;28;20067;-63
2022/12/04 05:15:36;;;;;;;25.33;12.23;;;;;;;;;;5094827;28;20036;-63
2022/12/04 05:18:04;;;;;;;21.90;10.40;;;;;;;;;;5093022;28;20067;-63
2022/12/04 05:20:31;;;;;;;24.10;10.40;;;;;;;;;;5094643;28;20401;-63
2022/12/04 05:22:59;;;;;;;21.80;11.60;;;;;;;;;;5094418;28;20566;-63
2022/12/04 05:25:26;;;;;;;24.70;13.60;;;;;;;;;;5094817;28;20040;-64
2022/12/04 05:27:54;;;;;;;24.13;12.55;;;;;;;;;;5094586;28;20048;-64
2022/12/04 05:30:21;;;;;;;22.58;10.82;;;;;;;;;;5094444;28;20093;-64
2022/12/04 05:32:49;;;;;;;23.25;11.13;;;;;;;;;;5094489;28;20044;-64
2022/12/04 05:35:16;;;;;;;22.73;12.18;;;;;;;;;;5094507;28;20068;-64
2022/12/04 05:37:44;;;;;;;23.73;12.55;;;;;;;;;;5094235;28;20071;-64
2022/12/04 05:40:12;;;;;;;26.02;12.63;;;;;;;;;;5093054;28;20040;-64
2022/12/04 05:42:39;;;;;;;38.53;18.52;;;;;;;;;;5093144;28;20052;-64
2022/12/04 05:45:07;;;;;;;32.97;17.63;;;;;;;;;;5094595;28;20389;-64
2022/12/04 05:47:38;;;;;;;24.63;11.20;;;;;;;;;;5094184;28;20062;-65
2022/12/04 05:50:06;;;;;;;24.02;12.93;;;;;;;;;;5094160;28;20044;-65
2022/12/04 05:52:33;;;;;;;23.98;12.90;;;;;;;;;;5094284;28;20520;-65
2022/12/04 05:55:01;;;;;;;22.23;11.45;;;;;;;;;;5094016;28;20046;-65
2022/12/04 05:57:28;;;;;;;25.05;13.93;;;;;;;;;;5092904;28;20048;-65
2022/12/04 05:59:56;;;;;;;19.50;11.73;;;;;;;;;;5094146;28;20799;-65
2022/12/04 06:02:24;;;;;;;27.35;13.50;;;;;;;;;;5092957;28;20117;-65
2022/12/04 06:04:51;;;;;;;23.40;11.68;;;;;;;;;;5094087;28;20051;-65
2022/12/04 06:07:19;;;;;;;23.23;12.50;;;;;;;;;;5093968;28;20063;-65
2022/12/04 06:09:46;;;;;;;23.52;12.32;;;;;;;;;;5092784;28;21191;-65
2022/12/04 06:12:14;;;;;;;20.60;11.63;;;;;;;;;;5092357;28;20053;-65
2022/12/04 06:14:41;;;;;;;21.48;10.77;;;;;;;;;;5093791;28;20044;-65
2022/12/04 06:17:08;;;;;;;21.52;10.65;;;;;;;;;;5075661;28;20040;-65
2022/12/04 06:19:36;;;;;;;20.70;11.00;;;;;;;;;;5091484;28;20101;-65
2022/12/04 06:22:03;;;;;;;22.80;11.65;;;;;;;;;;5093438;28;20044;-65
2022/12/04 06:24:31;;;;;;;23.42;12.07;;;;;;;;;;5092137;28;20478;-65
2022/12/04 06:26:59;;;;;;;39.22;20.27;;;;;;;;;;5093509;28;20066;-65
2022/12/04 06:29:46;;;;;;;27.10;15.48;;;;;;;;;;5093223;28;20043;-65
2022/12/04 06:32:14;;;;;;;28.40;15.38;;;;;;;;;;5093135;28;20044;-65
2022/12/04 06:34:52;;;;;;;28.17;13.30;;;;;;;;;;5029364;28;20042;-66
2022/12/04 06:37:20;;;;;;;35.67;20.63;;;;;;;;;;5007423;28;20042;-66
2022/12/04 06:39:48;;;;;;;25.52;13.13;;;;;;;;;;5092100;28;20040;-66
2022/12/04 06:42:16;;;;;;;27.52;15.07;;;;;;;;;;5093093;28;20596;-67
2022/12/04 06:44:43;;;;;;;22.80;12.38;;;;;;;;;;5092779;28;20438;-67
2022/12/04 06:47:10;;;;;;;24.58;12.18;;;;;;;;;;5092733;28;20039;-67
2022/12/04 06:49:38;;;;;;;26.98;12.52;;;;;;;;;;5093254;28;20105;-67
2022/12/04 06:52:05;;;;;;;20.77;11.70;;;;;;;;;;5092938;28;20036;-66
2022/12/04 06:54:33;;;;;;;22.42;11.60;;;;;;;;;;5091797;28;20054;-67
2022/12/04 06:57:00;;;;;;;21.10;11.35;;;;;;;;;;5093158;28;20064;-67
2022/12/04 06:59:28;;;;;;;17.25;9.70;;;;;;;;;;5012898;28;20050;-67
2022/12/04 07:01:55;;;;;;;18.92;10.13;;;;;;;;;;4991012;28;20055;-66
2022/12/04 07:04:23;;;;;;;19.65;10.52;;;;;;;;;;4990597;28;20081;-66
2022/12/04 07:06:51;;;;;;;21.30;10.38;;;;;;;;;;4990579;28;20038;-66
2022/12/04 07:09:18;;;;;;;21.70;11.35;;;;;;;;;;4990708;28;20088;-66
2022/12/04 07:11:46;;;;;;;22.23;10.85;;;;;;;;;;5000588;28;20030;-66
2022/12/04 07:14:14;;;;;;;21.67;11.20;;;;;;;;;;5008516;28;20115;-66
2022/12/04 07:16:42;;;;;;;24.45;12.13;;;;;;;;;;5010119;28;20383;-66
2022/12/04 07:19:10;;;;;;;21.83;10.35;;;;;;;;;;5010142;28;20046;-66
2022/12/04 07:21:38;;;;;;;30.58;15.00;;;;;;;;;;5008544;28;20418;-66
2022/12/04 07:24:06;;;;;;;36.90;18.67;;;;;;;;;;5010064;28;20049;-66
2022/12/04 07:26:33;;;;;;;20.52;11.32;;;;;;;;;;5009791;28;20061;-66
2022/12/04 07:29:01;;;;;;;24.77;12.10;;;;;;;;;;5009750;28;20434;-66
2022/12/04 07:31:29;;;;;;;22.63;11.65;;;;;;;;;;4996678;28;20062;-67
2022/12/04 07:33:57;;;;;;;21.75;10.95;;;;;;;;;;4996791;28;20496;-66
2022/12/04 07:36:25;;;;;;;23.27;12.50;;;;;;;;;;4996860;28;20070;-66
2022/12/04 07:38:54;;;;;;;21.10;11.40;;;;;;;;;;4996723;28;20042;-66
2022/12/04 07:41:21;;;;;;;25.23;13.65;;;;;;;;;;4996584;28;20050;-66
2022/12/04 07:43:49;;;;;;;24.83;13.25;;;;;;;;;;4996361;28;20487;-67
2022/12/04 07:46:18;;;;;;;23.45;12.80;;;;;;;;;;4996546;28;20061;-66
2022/12/04 07:48:46;;;;;;;25.83;13.55;;;;;;;;;;4996464;28;20046;-66
2022/12/04 07:51:15;;;;;;;26.23;13.27;;;;;;;;;;4996215;28;20043;-66
2022/12/04 07:53:43;;;;;;;25.67;14.25;;;;;;;;;;4996317;28;20042;-65
2022/12/04 07:56:12;;;;;;;26.08;13.38;;;;;;;;;;4995907;28;20046;-65
2022/12/04 07:58:39;;;;;;;23.45;12.93;;;;;;;;;;4995669;28;20045;-65
2022/12/04 08:01:11;;;;;;;25.02;13.40;;;;;;;;;;4994389;28;20050;-64
2022/12/04 08:03:42;;;;;;;20.40;11.55;;;;;;;;;;4996344;28;20038;-65
2022/12/04 08:06:16;;;;;;;19.95;11.20;;;;;;;;;;4996380;28;20042;-62
2022/12/04 08:08:43;;;;;;;18.55;10.50;;;;;;;;;;4996317;28;20076;-64
2022/12/04 08:11:12;;;;;;;20.15;11.02;;;;;;;;;;4996375;28;20519;-65
2022/12/04 08:13:39;;;;;;;22.42;12.60;;;;;;;;;;4996143;28;20054;-65
2022/12/04 08:16:08;;;;;;;23.23;11.80;;;;;;;;;;4996506;28;20042;-65
2022/12/04 08:18:35;;;;;;;19.33;11.02;;;;;;;;;;4996272;28;20042;-65
2022/12/04 08:21:07;;;;;;;20.95;10.70;;;;;;;;;;4996114;28;20580;-65
2022/12/04 08:23:34;;;;;;;21.58;11.50;;;;;;;;;;4995860;28;20047;-65
2022/12/04 08:26:02;;;;;;;22.63;13.32;;;;;;;;;;4996012;28;20042;-64
2022/12/04 08:28:30;;;;;;;19.33;12.00;;;;;;;;;;4996115;28;20100;-65
2022/12/04 08:31:02;;;;;;;16.70;10.23;;;;;;;;;;4994923;28;20054;-65
2022/12/04 08:33:30;;;;;;;18.92;11.50;;;;;;;;;;4996052;28;20121;-65
2022/12/04 08:35:57;;;;;;;20.77;11.80;;;;;;;;;;4996004;28;20047;-64
2022/12/04 08:38:25;;;;;;;18.02;11.32;;;;;;;;;;4996240;28;20038;-64
2022/12/04 08:40:52;;;;;;;16.02;9.70;;;;;;;;;;4995983;28;20050;-65
2022/12/04 08:43:20;;;;;;;18.75;10.00;;;;;;;;;;4992186;28;20053;-64
2022/12/04 08:45:57;;;;;;;15.80;10.23;;;;;;;;;;4992693;28;20042;-65
2022/12/04 08:48:25;;;;;;;14.90;9.00;;;;;;;;;;4992742;28;20054;-65
2022/12/04 08:50:52;;;;;;;15.40;8.95;;;;;;;;;;4992672;28;20043;-64
2022/12/04 08:53:20;;;;;;;17.33;9.77;;;;;;;;;;4992695;28;20046;-63
2022/12/04 08:55:48;;;;;;;18.17;10.27;;;;;;;;;;4992489;28;20489;-65
2022/12/04 08:58:15;;;;;;;16.05;9.32;;;;;;;;;;4992433;28;20053;-63
2022/12/04 09:00:43;;;;;;;14.85;9.55;;;;;;;;;;4992684;28;20049;-63
2022/12/04 09:03:14;;;;;;;25.90;13.32;;;;;;;;;;4992400;28;20054;-63
2022/12/04 09:05:44;;;;;;;18.10;10.57;;;;;;;;;;4992465;28;20038;-63
2022/12/04 09:08:12;;;;;;;16.77;9.63;;;;;;;;;;4992818;28;20050;-63
2022/12/04 09:10:40;;;;;;;16.65;10.80;;;;;;;;;;4992911;28;20042;-63
2022/12/04 09:13:08;;;;;;;12.15;7.32;;;;;;;;;;4992385;28;20404;-63
2022/12/04 09:15:38;;;;;;;12.63;8.02;;;;;;;;;;4992679;28;20038;-63
2022/12/04 09:18:07;;;;;;;14.55;8.93;;;;;;;;;;4991763;28;20050;-64
2022/12/04 09:20:34;;;;;;;12.77;8.32;;;;;;;;;;4992929;28;20096;-64
2022/12/04 09:23:02;;;;;;;13.43;7.63;;;;;;;;;;4997233;28;20104;-64
2022/12/04 09:25:34;;;;;;;11.90;8.07;;;;;;;;;;4991961;28;20422;-64
2022/12/04 09:28:02;;;;;;;10.85;8.05;;;;;;;;;;4992054;28;20050;-66
2022/12/04 09:30:29;;;;;;;15.90;8.18;;;;;;;;;;4992313;28;20038;-67
2022/12/04 09:32:57;;;;;;;10.60;6.57;;;;;;;;;;4974810;28;20064;-66
2022/12/04 09:35:24;;;;;;;10.80;6.80;;;;;;;;;;4990545;28;20046;-65
2022/12/04 09:37:52;;;;;;;10.48;6.22;;;;;;;;;;4991686;28;20054;-65
2022/12/04 09:40:26;;;;;;;10.27;6.30;;;;;;;;;;4999108;28;20108;-66
2022/12/04 09:43:12;;;;;;;10.95;6.75;;;;;;;;;;4998542;28;20532;-65
2022/12/04 09:45:48;;;;;;;9.35;6.03;;;;;;;;;;4995705;28;20089;-66
2022/12/04 09:48:15;;;;;;;;;;;;;;;;;;4972405;28;20057;-65
2022/12/04 09:50:44;;;;;;;10.00;6.55;;;;;;;;;;4970906;28;19968;-66
2022/12/04 09:53:11;;;;;;;9.95;6.75;;;;;;;;;;4971563;28;20042;-66
2022/12/04 09:55:42;;;;;;;11.27;7.13;;;;;;;;;;4971650;28;20063;-66
2022/12/04 09:58:21;;;;;;;13.70;7.03;;;;;;;;;;4973798;28;20069;-66
2022/12/04 10:00:50;;;;;;;9.93;6.07;;;;;;;;;;4972025;28;20092;-66
2022/12/04 10:03:18;;;;;;;9.40;6.50;;;;;;;;;;4971839;28;20074;-66
2022/12/04 10:05:46;;;;;;;10.07;6.07;;;;;;;;;;4972042;28;20042;-66
2022/12/04 10:08:34;;;;;;;9.25;6.40;;;;;;;;;;4971859;28;20047;-66
2022/12/04 10:11:05;;;;;;;8.75;5.80;;;;;;;;;;4972373;28;20053;-66
2022/12/04 10:13:49;;;;;;;8.52;6.30;;;;;;;;;;4971999;28;20112;-66
2022/12/04 10:16:17;;;;;;;10.05;5.72;;;;;;;;;;4970975;28;20047;-66
2022/12/04 10:18:50;;;;;;;7.15;4.63;;;;;;;;;;4971311;28;20053;-65
2022/12/04 10:21:18;;;;;;;8.18;5.82;;;;;;;;;;4977022;28;20043;-66
2022/12/04 10:23:51;;;;;;;7.70;5.72;;;;;;;;;;4990773;28;20389;-65
2022/12/04 10:26:21;;;;;;;7.05;5.05;;;;;;;;;;4975590;28;20038;-65
2022/12/04 10:28:55;;;;;;;7.22;5.10;;;;;;;;;;4989451;28;20039;-66
2022/12/04 10:31:23;;;;;;;7.50;5.38;;;;;;;;;;4990638;28;20133;-66
2022/12/04 10:33:53;;;;;;;7.90;5.80;;;;;;;;;;4983874;28;20490;-66
2022/12/04 10:36:24;;;;;;;10.02;6.68;;;;;;;;;;4980570;28;20077;-66
2022/12/04 10:39:06;;;;;;;10.93;7.07;;;;;;;;;;4979072;28;20045;-67
2022/12/04 10:41:36;;;;;;;15.68;10.43;;;;;;;;;;4979175;28;20049;-68
2022/12/04 10:44:04;;;;;;;14.02;9.25;;;;;;;;;;4989862;28;20491;-69
2022/12/04 10:46:33;;;;;;;10.05;7.10;;;;;;;;;;4979159;28;20097;-68
2022/12/04 10:49:03;;;;;;;12.90;7.20;;;;;;;;;;4970802;28;20127;-67
2022/12/04 10:51:35;;;;;;;9.70;6.20;;;;;;;;;;4970987;28;20066;-68
2022/12/04 10:54:08;;;;;;;15.75;9.18;;;;;;;;;;4989108;28;20042;-68
2022/12/04 10:56:36;;;;;;;11.48;7.68;;;;;;;;;;4990429;28;20080;-66
2022/12/04 10:59:05;;;;;;;8.50;5.85;;;;;;;;;;4990275;28;20034;-68
2022/12/04 11:01:33;;;;;;;8.68;6.32;;;;;;;;;;4990354;28;20046;-66
2022/12/04 11:04:07;;;;;;;10.63;6.95;;;;;;;;;;4990092;28;20077;-65
2022/12/04 11:06:35;;;;;;;13.40;9.85;;;;;;;;;;4990116;28;20074;-66
2022/12/04 11:09:03;;;;;;;8.73;6.80;;;;;;;;;;4990165;28;20516;-67
2022/12/04 11:11:31;;;;;;;10.18;7.50;;;;;;;;;;4990182;28;20092;-66
2022/12/04 11:14:16;;;;;;;7.82;5.78;;;;;;;;;;4990114;28;20046;-66
2022/12/04 11:16:45;;;;;;;7.57;5.20;;;;;;;;;;4990042;28;20043;-66
2022/12/04 11:19:20;;;;;;;8.85;5.88;;;;;;;;;;4990069;28;20038;-67
2022/12/04 11:21:47;;;;;;;8.38;5.70;;;;;;;;;;4984012;28;20512;-69
2022/12/04 11:24:23;;;;;;;6.70;5.25;;;;;;;;;;4984085;28;20054;-69
2022/12/04 11:26:51;;;;;;;6.68;5.00;;;;;;;;;;4981903;28;20510;-67
2022/12/04 11:29:21;;;;;;;9.55;6.85;;;;;;;;;;4970443;28;20154;-68
2022/12/04 11:31:54;;;;;;;8.30;6.00;;;;;;;;;;4970396;28;20078;-68
2022/12/04 11:34:24;;;;;;;7.25;5.20;;;;;;;;;;4970423;28;20394;-67
2022/12/04 11:36:53;;;;;;;5.80;4.47;;;;;;;;;;4970389;28;20077;-66
2022/12/04 11:39:29;;;;;;;9.60;7.13;;;;;;;;;;4970569;28;20446;-69
2022/12/04 11:42:01;;;;;;;9.18;7.47;;;;;;;;;;4970380;28;20110;-65
2022/12/04 11:44:30;;;;;;;9.38;8.00;;;;;;;;;;4966919;28;20054;-67
2022/12/04 11:46:59;;;;;;;8.93;6.72;;;;;;;;;;4970123;28;20035;-66
2022/12/04 11:49:27;;;;;;;12.43;9.80;;;;;;;;;;4989436;28;20061;-66
2022/12/04 11:52:13;;;;;;;12.48;8.13;;;;;;;;;;4988704;28;20376;-66
2022/12/04 11:54:56;;;;;;;6.43;4.47;;;;;;;;;;4989650;28;20036;-66
2022/12/04 11:57:29;;;;;;;6.75;4.80;;;;;;;;;;4989548;28;20121;-68
2022/12/04 11:59:57;;;;;;;6.30;4.72;;;;;;;;;;4989913;28;20108;-70
2022/12/04 12:02:39;;;;;;;6.70;4.72;;;;;;;;;;4989475;28;20030;-67
2022/12/04 12:05:25;;;;;;;6.55;4.93;;;;;;;;;;4988408;28;20042;-67
2022/12/04 12:08:20;;;;;;;9.40;5.80;;;;;;;;;;4985441;28;20039;-66
2022/12/04 12:10:50;;;;;;;8.52;5.60;;;;;;;;;;4971388;28;20066;-69
2022/12/04 12:13:21;;;;;;;10.70;7.07;;;;;;;;;;4970000;28;20047;-68
2022/12/04 12:16:00;;;;;;;11.55;7.10;;;;;;;;;;4975924;28;20129;-71
2022/12/04 12:18:33;;;;;;;9.65;5.93;;;;;;;;;;4990640;28;20519;-68
2022/12/04 12:21:08;;;;;;;8.57;5.65;;;;;;;;;;4992803;28;20042;-66
2022/12/04 12:23:41;;;;;;;8.13;4.95;;;;;;;;;;4983093;28;21425;-68
2022/12/04 12:26:13;;;;;;;7.80;4.90;;;;;;;;;;4982367;28;20061;-69
2022/12/04 12:28:57;;;;;;;9.50;5.78;;;;;;;;;;4990289;28;20038;-68
2022/12/04 12:31:39;;;;;;;14.65;6.50;;;;;;;;;;4987792;28;20396;-69
2022/12/04 12:34:10;;;;;;;19.35;7.97;;;;;;;;;;4979558;28;20050;-69
2022/12/04 12:36:42;;;;;;;31.30;9.60;;;;;;;;;;4972554;28;20077;-69
2022/12/04 12:39:30;;;;;;;11.73;6.20;;;;;;;;;;4972894;28;20045;-68
2022/12/04 12:42:00;;;;;;;34.70;11.27;;;;;;;;;;4972828;28;20043;-69
2022/12/04 12:44:33;;;;;;;9.48;4.57;;;;;;;;;;4972716;28;20047;-68
2022/12/04 12:47:07;;;;;;;11.38;6.68;;;;;;;;;;4972613;28;20041;-68
2022/12/04 12:49:45;;;;;;;7.57;4.47;;;;;;;;;;5004233;28;20054;-65
2022/12/04 12:52:36;;;;;;;32.90;10.38;;;;;;;;;;4970939;28;20045;-66
2022/12/04 12:55:23;;;;;;;49.25;13.13;;;;;;;;;;4979145;28;20472;-67
2022/12/04 12:58:10;;;;;;;13.73;6.95;;;;;;;;;;4972597;28;20510;-66
2022/12/04 13:00:42;;;;;;;30.42;9.98;;;;;;;;;;4972443;28;20038;-70
2022/12/04 13:03:12;;;;;;;21.05;9.02;;;;;;;;;;4971298;28;20041;-67
2022/12/04 13:05:42;;;;;;;16.55;9.23;;;;;;;;;;4972492;28;20118;-67
2022/12/04 13:08:12;;;;;;;28.15;14.27;;;;;;;;;;4972466;28;20035;-66
2022/12/04 13:10:43;;;;;;;21.42;12.05;;;;;;;;;;4972354;28;20043;-66
2022/12/04 13:13:13;;;;;;;13.07;7.80;;;;;;;;;;4972582;28;20062;-67
2022/12/04 13:15:41;;;;;;;10.45;6.63;;;;;;;;;;4972215;28;20042;-67
2022/12/04 13:18:10;;;;;;;7.90;5.32;;;;;;;;;;4972268;28;20073;-66
2022/12/04 13:20:51;;;;;;;10.48;6.35;;;;;;;;;;5003499;28;20047;-66
2022/12/04 13:23:39;;;;;;;14.75;7.78;;;;;;;;;;4972195;28;20066;-67
2022/12/04 13:26:25;;;;;;;21.65;9.80;;;;;;;;;;5012361;28;20627;-66
2022/12/04 13:29:02;;;;;;;25.00;8.88;;;;;;;;;;4991493;28;20053;-66
2022/12/04 13:31:35;;;;;;;50.28;15.18;;;;;;;;;;4991682;28;20100;-67
2022/12/04 13:34:09;;;;;;;15.52;7.60;;;;;;;;;;4991824;28;20065;-67
2022/12/04 13:36:45;;;;;;;25.38;9.73;;;;;;;;;;4991655;28;20053;-67
2022/12/04 13:39:19;;;;;;;30.83;10.93;;;;;;;;;;4991684;28;20047;-67
2022/12/04 13:41:46;;;;;;;16.42;6.97;;;;;;;;;;4991201;28;20069;-68
2022/12/04 13:44:20;;;;;;;37.45;12.77;;;;;;;;;;4991205;28;20440;-68
2022/12/04 13:46:52;;;;;;;18.30;8.90;;;;;;;;;;4990034;28;20095;-68
2022/12/04 13:49:25;;;;;;;22.10;12.82;;;;;;;;;;4993621;28;20102;-67
2022/12/04 13:51:53;;;;;;;42.55;16.17;;;;;;;;;;4990764;28;20395;-68
2022/12/04 13:54:39;;;;;;;35.88;14.57;;;;;;;;;;4990490;28;20046;-66
2022/12/04 13:57:06;;;;;;;;;;;;;;;;;;4992090;28;20134;-67
2022/12/04 13:59:35;;;;;;;23.08;12.77;;;;;;;;;;4991537;28;19957;-67
2022/12/04 14:02:23;;;;;;;24.13;10.52;;;;;;;;;;4991626;28;20514;-67
2022/12/04 14:05:01;;;;;;;24.55;12.25;;;;;;;;;;4997425;28;20133;-68
2022/12/04 14:07:34;;;;;;;29.80;13.95;;;;;;;;;;4991473;28;20392;-67
2022/12/04 14:10:24;;;;;;;22.25;12.18;;;;;;;;;;4991116;28;20042;-69
2022/12/04 14:13:06;;;;;;;22.23;11.50;;;;;;;;;;4989891;28;20046;-71
2022/12/04 14:15:37;;;;;;;14.02;9.27;;;;;;;;;;4991336;28;20047;-67
2022/12/04 14:18:15;;;;;;;20.67;11.65;;;;;;;;;;4991212;28;20042;-67
2022/12/04 14:20:43;;;;;;;23.52;12.43;;;;;;;;;;4990704;28;20046;-69
2022/12/04 14:23:21;;;;;;;17.30;10.32;;;;;;;;;;4991170;28;20120;-71
2022/12/04 14:25:50;;;;;;;22.30;12.73;;;;;;;;;;4990952;28;20056;-65
2022/12/04 14:28:34;;;;;;;34.25;16.67;;;;;;;;;;4991195;28;20031;-66
2022/12/04 14:31:08;;;;;;;25.95;14.55;;;;;;;;;;4991118;28;20042;-67
2022/12/04 14:33:47;;;;;;;24.30;12.95;;;;;;;;;;4990914;28;20034;-67
2022/12/04 14:36:17;;;;;;;17.05;10.98;;;;;;;;;;4990731;28;20038;-65
2022/12/04 14:38:47;;;;;;;23.70;13.00;;;;;;;;;;4989862;28;20061;-66
2022/12/04 14:41:23;;;;;;;18.10;11.35;;;;;;;;;;4989960;28;20162;-66
2022/12/04 14:43:50;;;;;;;26.58;15.07;;;;;;;;;;4990468;28;20047;-66
2022/12/04 14:46:25;;;;;;;28.45;16.80;;;;;;;;;;4983913;28;20036;-64
2022/12/04 14:49:12;;;;;;;16.83;11.27;;;;;;;;;;4988207;28;20062;-66
2022/12/04 14:51:44;;;;;;;18.33;11.50;;;;;;;;;;4990129;28;20054;-66
2022/12/04 14:54:23;;;;;;;13.65;9.45;;;;;;;;;;4976580;28;20076;-65
2022/12/04 14:57:01;;;;;;;16.65;9.32;;;;;;;;;;4988865;28;20056;-66
2022/12/04 14:59:45;;;;;;;16.63;11.18;;;;;;;;;;4990108;28;20125;-66